createdAt,value
2018-04-15T00:02:14.762Z,84.80
2018-04-15T00:04:41.245Z,84.90
2018-04-15T00:07:07.838Z,85.10
2018-04-15T00:09:34.341Z,85.90
2018-04-15T00:12:01.587Z,84.90
2018-04-15T00:14:28.102Z,84.70
2018-04-15T00:16:54.608Z,85.30
2018-04-15T00:19:21.114Z,85.80
2018-04-15T00:21:47.688Z,85.50
2018-04-15T00:24:14.227Z,85.70
2018-04-15T00:26:41.476Z,86.60
2018-04-15T00:29:08.017Z,85.70
2018-04-15T00:31:34.549Z,86.30
2018-04-15T00:34:01.048Z,87.30
2018-04-15T00:36:27.555Z,86.80
2018-04-15T00:38:54.080Z,86.90
2018-04-15T00:41:20.570Z,86.80
2018-04-15T00:43:47.067Z,86.80
2018-04-15T00:46:14.334Z,86.40
2018-04-15T00:48:40.840Z,86.70
2018-04-15T00:51:07.354Z,86.90
2018-04-15T00:53:46.024Z,86.50
2018-04-15T00:56:13.293Z,87.40
2018-04-15T00:58:39.810Z,87.50
2018-04-15T01:01:06.332Z,87.50
2018-04-15T01:03:32.849Z,87.10
2018-04-15T01:05:59.356Z,87.30
2018-04-15T01:08:25.916Z,87.30
2018-04-15T01:10:52.483Z,87.40
2018-04-15T01:13:19.008Z,88.20
2018-04-15T01:15:46.264Z,88.20
2018-04-15T01:18:13.515Z,88.00
2018-04-15T01:20:40.760Z,88.20
2018-04-15T01:23:07.273Z,88.20
2018-04-15T01:25:33.791Z,88.80
2018-04-15T01:28:00.312Z,88.60
2018-04-15T01:30:26.809Z,88.70
2018-04-15T01:32:54.078Z,88.80
2018-04-15T01:35:20.577Z,88.80
2018-04-15T01:37:47.073Z,89.10
2018-04-15T01:40:13.574Z,88.90
2018-04-15T01:42:40.121Z,89.40
2018-04-15T01:45:06.622Z,88.60
2018-04-15T01:47:33.145Z,87.30
2018-04-15T01:50:00.401Z,86.80
2018-04-15T01:52:27.010Z,87.00
2018-04-15T01:54:53.568Z,87.00
2018-04-15T01:57:20.144Z,88.20
2018-04-15T01:59:46.654Z,89.00
2018-04-15T02:02:13.191Z,89.00
2018-04-15T02:04:39.687Z,88.80
2018-04-15T02:07:06.260Z,88.90
2018-04-15T02:09:32.767Z,88.80
2018-04-15T02:11:59.286Z,88.70
2018-04-15T02:14:25.818Z,88.90
2018-04-15T02:16:52.412Z,88.90
2018-04-15T02:19:18.950Z,88.70
2018-04-15T02:21:45.458Z,88.80
2018-04-15T02:24:11.978Z,89.00
2018-04-15T02:26:38.546Z,89.20
2018-04-15T02:29:05.093Z,89.30
2018-04-15T02:31:31.590Z,89.70
2018-04-15T02:33:58.151Z,90.20
2018-04-15T02:36:24.646Z,90.20
2018-04-15T02:38:51.183Z,90.00
2018-04-15T02:41:18.525Z,90.20
2018-04-15T02:43:45.028Z,90.20
2018-04-15T02:46:11.576Z,90.20
2018-04-15T02:48:38.819Z,90.20
2018-04-15T02:51:06.128Z,90.40
2018-04-15T02:53:32.657Z,90.30
2018-04-15T02:55:59.173Z,90.20
2018-04-15T02:58:25.681Z,90.30
2018-04-15T03:00:52.205Z,90.60
2018-04-15T03:03:18.732Z,90.50
2018-04-15T03:05:45.274Z,90.40
2018-04-15T03:08:11.835Z,90.60
2018-04-15T03:10:38.390Z,90.70
2018-04-15T03:13:04.891Z,90.70
2018-04-15T03:15:31.397Z,90.80
2018-04-15T03:17:57.917Z,90.70
2018-04-15T03:20:24.452Z,90.80
2018-04-15T03:22:50.993Z,90.60
2018-04-15T03:25:17.534Z,90.80
2018-04-15T03:27:44.034Z,90.80
2018-04-15T03:30:10.580Z,90.60
2018-04-15T03:32:37.070Z,90.40
2018-04-15T03:35:03.638Z,90.60
2018-04-15T03:37:30.175Z,90.80
2018-04-15T03:39:56.717Z,90.80
2018-04-15T03:42:23.212Z,90.60
2018-04-15T03:44:50.543Z,90.70
2018-04-15T03:47:17.059Z,90.70
2018-04-15T03:49:43.589Z,90.80
2018-04-15T03:52:10.108Z,90.70
2018-04-15T03:54:36.632Z,90.40
2018-04-15T03:57:03.212Z,90.50
2018-04-15T03:59:29.711Z,90.60
2018-04-15T04:01:57.821Z,90.80
2018-04-15T04:04:24.354Z,90.70
2018-04-15T04:06:51.623Z,90.90
2018-04-15T04:09:18.144Z,90.90
2018-04-15T04:11:44.648Z,91.10
2018-04-15T04:14:11.138Z,91.00
2018-04-15T04:16:37.640Z,90.80
2018-04-15T04:19:16.243Z,91.10
2018-04-15T04:21:54.916Z,91.00
2018-04-15T04:24:33.521Z,91.10
2018-04-15T04:27:00.041Z,91.00
2018-04-15T04:29:26.577Z,90.80
2018-04-15T04:31:53.820Z,90.80
2018-04-15T04:34:20.348Z,90.70
2018-04-15T04:36:46.852Z,90.80
2018-04-15T04:39:13.449Z,90.60
2018-04-15T04:41:39.984Z,90.90
2018-04-15T04:44:06.548Z,90.80
2018-04-15T04:46:33.064Z,91.00
2018-04-15T04:48:59.574Z,91.00
2018-04-15T04:51:26.078Z,91.10
2018-04-15T04:53:52.569Z,91.10
2018-04-15T04:56:19.092Z,91.00
2018-04-15T04:58:45.595Z,91.00
2018-04-15T05:01:12.107Z,91.00
2018-04-15T05:03:41.851Z,90.80
2018-04-15T05:06:08.977Z,90.80
2018-04-15T05:08:35.497Z,90.60
2018-04-15T05:11:02.744Z,90.80
2018-04-15T05:13:30.000Z,90.50
2018-04-15T05:15:57.264Z,90.20
2018-04-15T05:18:23.806Z,90.20
2018-04-15T05:20:50.335Z,90.30
2018-04-15T05:23:16.857Z,90.40
2018-04-15T05:25:43.362Z,90.50
2018-04-15T05:28:10.445Z,90.00
2018-04-15T05:30:36.935Z,89.60
2018-04-15T05:33:03.445Z,89.40
2018-04-15T05:35:29.989Z,89.30
2018-04-15T05:37:56.566Z,89.00
2018-04-15T05:40:23.082Z,88.20
2018-04-15T05:42:49.582Z,88.40
2018-04-15T05:45:16.093Z,87.30
2018-04-15T05:47:43.393Z,87.20
2018-04-15T05:50:10.679Z,86.60
2018-04-15T05:52:37.220Z,87.00
2018-04-15T05:55:04.559Z,86.70
2018-04-15T05:57:31.056Z,86.30
2018-04-15T05:59:57.632Z,85.40
2018-04-15T06:02:24.143Z,84.80
2018-04-15T06:04:50.641Z,84.20
2018-04-15T06:07:17.152Z,84.50
2018-04-15T06:09:43.712Z,84.00
2018-04-15T06:12:10.246Z,83.30
2018-04-15T06:14:36.754Z,82.10
2018-04-15T06:17:03.279Z,81.40
2018-04-15T06:19:29.813Z,79.00
2018-04-15T06:21:56.346Z,80.30
2018-04-15T06:24:22.848Z,79.70
2018-04-15T06:26:49.364Z,77.80
2018-04-15T06:29:15.895Z,77.00
2018-04-15T06:31:42.384Z,77.00
2018-04-15T06:34:08.878Z,76.30
2018-04-15T06:36:36.025Z,74.80
2018-04-15T06:39:02.636Z,75.90
2018-04-15T06:41:29.879Z,73.20
2018-04-15T06:43:56.481Z,72.90
2018-04-15T06:46:23.001Z,73.90
2018-04-15T06:48:49.513Z,73.70
2018-04-15T06:51:16.081Z,73.00
2018-04-15T06:53:42.608Z,72.70
2018-04-15T06:56:09.108Z,72.60
2018-04-15T06:58:36.369Z,71.50
2018-04-15T07:01:02.888Z,71.60
2018-04-15T07:03:29.428Z,70.70
2018-04-15T07:05:56.751Z,71.70
2018-04-15T07:08:23.245Z,71.70
2018-04-15T07:10:49.779Z,71.60
2018-04-15T07:13:16.289Z,70.70
2018-04-15T07:15:42.830Z,71.20
2018-04-15T07:18:10.066Z,71.00
2018-04-15T07:20:37.217Z,71.10
2018-04-15T07:23:04.461Z,71.80
2018-04-15T07:25:30.977Z,71.80
2018-04-15T07:27:57.461Z,69.10
2018-04-15T07:30:24.011Z,68.80
2018-04-15T07:32:50.512Z,68.60
2018-04-15T07:35:17.032Z,70.00
2018-04-15T07:37:43.548Z,66.00
2018-04-15T07:40:10.089Z,66.70
2018-04-15T07:42:36.669Z,64.50
2018-04-15T07:45:03.265Z,61.00
2018-04-15T07:47:29.884Z,59.20
2018-04-15T07:49:56.461Z,56.90
2018-04-15T07:52:22.973Z,55.20
2018-04-15T07:54:49.479Z,55.80
2018-04-15T07:57:16.034Z,54.60
2018-04-15T07:59:42.543Z,56.50
2018-04-15T08:02:09.046Z,56.50
2018-04-15T08:04:36.338Z,55.70
2018-04-15T08:07:02.842Z,55.60
2018-04-15T08:09:29.360Z,56.00
2018-04-15T08:11:55.886Z,56.00
2018-04-15T08:14:22.435Z,55.30
2018-04-15T08:16:48.934Z,57.30
2018-04-15T08:19:15.472Z,57.30
2018-04-15T08:21:42.055Z,57.80
2018-04-15T08:24:09.308Z,58.60
2018-04-15T08:26:35.856Z,58.40
2018-04-15T08:29:02.392Z,60.00
2018-04-15T08:31:28.946Z,61.70
2018-04-15T08:33:55.469Z,62.30
2018-04-15T08:36:22.028Z,60.50
2018-04-15T08:38:48.555Z,62.60
2018-04-15T08:41:15.071Z,62.60
2018-04-15T08:43:41.608Z,63.50
2018-04-15T08:46:08.141Z,61.70
2018-04-15T08:48:35.446Z,59.70
2018-04-15T08:51:01.979Z,59.50
2018-04-15T08:53:28.558Z,58.00
2018-04-15T08:55:55.069Z,55.00
2018-04-15T08:58:21.581Z,55.50
2018-04-15T09:00:48.082Z,54.70
2018-04-15T09:03:14.590Z,49.70
2018-04-15T09:05:41.867Z,48.80
2018-04-15T09:08:08.388Z,48.80
2018-04-15T09:10:34.913Z,45.80
2018-04-15T09:13:02.232Z,50.10
2018-04-15T09:15:28.770Z,50.00
2018-04-15T09:17:55.307Z,51.50
2018-04-15T09:20:21.888Z,49.50
2018-04-15T09:22:49.160Z,47.00
2018-04-15T09:25:15.677Z,47.00
2018-04-15T09:27:42.916Z,46.80
2018-04-15T09:30:09.543Z,46.90
2018-04-15T09:32:36.094Z,47.40
2018-04-15T09:35:03.386Z,43.80
2018-04-15T09:37:29.999Z,43.70
2018-04-15T09:39:56.565Z,48.10
2018-04-15T09:42:23.058Z,46.70
2018-04-15T09:44:49.621Z,47.60
2018-04-15T09:47:16.217Z,49.60
2018-04-15T09:49:42.730Z,49.60
2018-04-15T09:52:09.234Z,48.50
2018-04-15T09:54:35.758Z,48.90
2018-04-15T09:57:02.240Z,50.80
2018-04-15T09:59:29.516Z,52.20
2018-04-15T10:01:56.032Z,52.20
2018-04-15T10:04:22.564Z,50.90
2018-04-15T10:06:49.073Z,51.70
2018-04-15T10:09:15.621Z,50.90
2018-04-15T10:11:42.161Z,50.40
2018-04-15T10:14:08.689Z,51.40
2018-04-15T10:16:35.269Z,51.10
2018-04-15T10:19:02.535Z,46.10
2018-04-15T10:21:29.109Z,45.80
2018-04-15T10:23:55.634Z,45.70
2018-04-15T10:26:22.211Z,49.40
2018-04-15T10:28:48.703Z,48.60
2018-04-15T10:31:15.323Z,48.20
2018-04-15T10:33:42.560Z,45.00
2018-04-15T10:36:09.848Z,44.40
2018-04-15T10:38:36.342Z,44.40
2018-04-15T10:41:02.856Z,46.40
2018-04-15T10:43:30.133Z,45.90
2018-04-15T10:45:57.444Z,46.40
2018-04-15T10:48:23.964Z,46.30
2018-04-15T10:50:50.498Z,48.70
2018-04-15T10:53:17.032Z,48.00
2018-04-15T10:55:43.613Z,44.90
2018-04-15T10:58:10.203Z,46.50
2018-04-15T11:00:36.725Z,45.60
2018-04-15T11:03:03.253Z,46.30
2018-04-15T11:05:30.563Z,48.60
2018-04-15T11:07:57.039Z,48.60
2018-04-15T11:10:23.585Z,45.30
2018-04-15T11:12:50.135Z,46.50
2018-04-15T11:15:16.650Z,44.30
2018-04-15T11:17:43.154Z,44.30
2018-04-15T11:20:09.650Z,44.20
2018-04-15T11:22:36.160Z,45.80
2018-04-15T11:25:02.696Z,45.00
2018-04-15T11:27:30.449Z,44.60
2018-04-15T11:30:00.071Z,44.50
2018-04-15T11:32:26.564Z,43.90
2018-04-15T11:34:53.080Z,44.80
2018-04-15T11:37:19.586Z,45.20
2018-04-15T11:39:46.092Z,47.60
2018-04-15T11:42:12.615Z,46.90
2018-04-15T11:44:39.184Z,48.30
2018-04-15T11:47:05.742Z,50.10
2018-04-15T11:49:32.339Z,49.50
2018-04-15T11:51:59.610Z,46.30
2018-04-15T11:54:26.135Z,46.30
2018-04-15T11:56:52.642Z,46.30
2018-04-15T11:59:19.179Z,45.20
2018-04-15T12:01:45.732Z,45.90
2018-04-15T12:04:12.997Z,45.80
2018-04-15T12:06:40.306Z,44.20
2018-04-15T12:09:06.826Z,44.20
2018-04-15T12:11:33.347Z,45.10
2018-04-15T12:13:59.873Z,44.60
2018-04-15T12:16:26.356Z,44.00
2018-04-15T12:18:53.892Z,45.10
2018-04-15T12:21:20.433Z,43.90
2018-04-15T12:23:47.732Z,42.50
2018-04-15T12:26:14.978Z,43.60
2018-04-15T12:28:41.510Z,43.70
2018-04-15T12:31:08.042Z,44.60
2018-04-15T12:33:35.315Z,44.40
2018-04-15T12:36:02.617Z,46.40
2018-04-15T12:38:29.164Z,46.40
2018-04-15T12:40:55.746Z,47.30
2018-04-15T12:43:22.382Z,45.00
2018-04-15T12:45:49.677Z,45.90
2018-04-15T12:48:16.210Z,46.00
2018-04-15T12:50:42.729Z,45.40
2018-04-15T12:53:09.344Z,46.50
2018-04-15T12:55:36.630Z,47.40
2018-04-15T12:58:03.228Z,47.30
2018-04-15T13:00:30.508Z,47.90
2018-04-15T13:02:57.015Z,47.90
2018-04-15T13:05:23.557Z,47.70
2018-04-15T13:07:50.823Z,48.30
2018-04-15T13:10:17.337Z,48.20
2018-04-15T13:12:44.643Z,47.80
2018-04-15T13:15:11.150Z,47.90
2018-04-15T13:17:37.687Z,48.50
2018-04-15T13:20:04.255Z,48.20
2018-04-15T13:22:30.730Z,48.90
2018-04-15T13:24:58.016Z,50.00
2018-04-15T13:27:24.545Z,50.10
2018-04-15T13:29:51.062Z,50.00
2018-04-15T13:32:17.663Z,50.50
2018-04-15T13:34:44.171Z,50.60
2018-04-15T13:37:10.684Z,50.70
2018-04-15T13:39:38.945Z,50.80
2018-04-15T13:42:06.218Z,51.60
2018-04-15T13:44:32.741Z,51.60
2018-04-15T13:47:00.282Z,52.00
2018-04-15T13:49:26.810Z,51.90
2018-04-15T13:51:53.350Z,52.60
2018-04-15T13:54:19.923Z,52.50
2018-04-15T13:56:46.433Z,52.10
2018-04-15T13:59:12.950Z,52.10
2018-04-15T14:01:39.480Z,52.10
2018-04-15T14:04:06.585Z,52.60
2018-04-15T14:06:33.089Z,53.00
2018-04-15T14:08:59.724Z,54.10
2018-04-15T14:11:26.246Z,53.60
2018-04-15T14:13:52.777Z,54.90
2018-04-15T14:16:19.302Z,55.60
2018-04-15T14:18:45.847Z,54.40
2018-04-15T14:21:12.404Z,55.50
2018-04-15T14:23:38.918Z,55.10
2018-04-15T14:26:05.480Z,54.00
2018-04-15T14:28:32.740Z,53.60
2018-04-15T14:30:59.276Z,53.70
2018-04-15T14:33:25.805Z,53.50
2018-04-15T14:35:53.092Z,54.10
2018-04-15T14:38:19.620Z,54.10
2018-04-15T14:40:46.134Z,53.70
2018-04-15T14:43:12.660Z,54.30
2018-04-15T14:45:39.185Z,54.40
2018-04-15T14:48:05.656Z,54.10
2018-04-15T14:50:32.168Z,54.10
2018-04-15T14:52:58.687Z,54.70
2018-04-15T14:55:25.206Z,54.80
2018-04-15T14:57:51.745Z,55.50
2018-04-15T15:00:18.333Z,55.60
2018-04-15T15:02:44.870Z,57.10
2018-04-15T15:05:11.470Z,57.80
2018-04-15T15:07:38.005Z,58.00
2018-04-15T15:10:04.585Z,58.40
2018-04-15T15:12:31.111Z,57.90
2018-04-15T15:14:57.687Z,57.50
2018-04-15T15:17:24.185Z,57.40
2018-04-15T15:19:50.692Z,57.80
2018-04-15T15:22:17.294Z,57.60
2018-04-15T15:24:43.833Z,58.20
2018-04-15T15:27:10.374Z,57.70
2018-04-15T15:29:36.922Z,58.20
2018-04-15T15:32:03.502Z,58.10
2018-04-15T15:34:30.034Z,58.20
2018-04-15T15:36:56.559Z,58.70
2018-04-15T15:39:23.845Z,60.70
2018-04-15T15:41:51.232Z,60.20
2018-04-15T15:44:17.742Z,61.30
2018-04-15T15:46:44.277Z,61.60
2018-04-15T15:49:10.821Z,62.20
2018-04-15T15:51:37.879Z,62.80
2018-04-15T15:54:04.464Z,63.60
2018-04-15T15:56:31.597Z,65.10
2018-04-15T15:58:58.198Z,66.00
2018-04-15T16:01:24.780Z,66.60
2018-04-15T16:03:51.368Z,68.50
2018-04-15T16:06:20.854Z,69.30
2018-04-15T16:08:47.406Z,70.70
2018-04-15T16:11:13.912Z,69.10
2018-04-15T16:13:40.509Z,71.80
2018-04-15T16:16:07.065Z,71.20
2018-04-15T16:18:33.691Z,70.50
2018-04-15T16:21:00.225Z,70.30
2018-04-15T16:23:26.770Z,70.30
2018-04-15T16:25:53.356Z,70.50
2018-04-15T16:28:19.866Z,71.80
2018-04-15T16:30:47.152Z,72.10
2018-04-15T16:33:14.491Z,72.10
2018-04-15T16:35:41.045Z,72.60
2018-04-15T16:38:07.559Z,72.20
2018-04-15T16:40:34.147Z,72.30
2018-04-15T16:43:00.754Z,72.40
2018-04-15T16:45:27.295Z,72.70
2018-04-15T16:47:54.679Z,73.30
2018-04-15T16:50:21.214Z,73.40
2018-04-15T16:52:48.586Z,73.30
2018-04-15T16:55:15.861Z,73.50
2018-04-15T16:57:42.361Z,73.50
2018-04-15T17:00:08.941Z,73.70
2018-04-15T17:02:35.464Z,74.00
2018-04-15T17:05:02.996Z,75.00
2018-04-15T17:07:29.524Z,74.80
2018-04-15T17:09:56.052Z,74.70
2018-04-15T17:12:23.596Z,75.90
2018-04-15T17:14:50.134Z,76.60
2018-04-15T17:17:16.659Z,76.80
2018-04-15T17:19:44.199Z,77.70
2018-04-15T17:22:10.694Z,77.90
2018-04-15T17:24:37.235Z,77.50
2018-04-15T17:27:04.636Z,77.70
2018-04-15T17:29:31.186Z,78.10
2018-04-15T17:31:58.636Z,78.10
2018-04-15T17:34:25.248Z,78.10
2018-04-15T17:36:51.872Z,78.10
2018-04-15T17:39:18.422Z,78.20
2018-04-15T17:41:45.054Z,78.80
2018-04-15T17:44:11.597Z,79.20
2018-04-15T17:46:38.213Z,80.80
2018-04-15T17:49:05.545Z,82.50
2018-04-15T17:51:32.141Z,82.30
2018-04-15T17:53:58.965Z,82.70
2018-04-15T17:56:26.143Z,84.00
2018-04-15T17:58:52.998Z,83.20
2018-04-15T18:01:19.533Z,83.40
2018-04-15T18:03:46.677Z,83.70
2018-04-15T18:06:13.241Z,84.10
2018-04-15T18:08:39.806Z,84.20
2018-04-15T18:11:06.361Z,84.50
2018-04-15T18:13:33.881Z,84.60
2018-04-15T18:16:00.439Z,84.20
2018-04-15T18:18:27.712Z,84.20
2018-04-15T18:20:54.295Z,84.20
2018-04-15T18:23:20.827Z,84.10
2018-04-15T18:25:47.481Z,84.20
2018-04-15T18:28:14.929Z,84.80
2018-04-15T18:30:41.521Z,85.70
2018-04-15T18:33:08.192Z,86.20
2018-04-15T18:35:34.765Z,86.10
2018-04-15T18:38:02.197Z,86.20
2018-04-15T18:40:28.856Z,86.30
2018-04-15T18:42:55.466Z,86.80
2018-04-15T18:45:22.932Z,87.20
2018-04-15T18:47:49.549Z,87.20
2018-04-15T18:50:17.844Z,87.70
2018-04-15T18:52:44.363Z,87.70
2018-04-15T18:55:10.931Z,87.40
2018-04-15T18:57:37.647Z,87.10
2018-04-15T19:00:05.038Z,87.50
2018-04-15T19:02:32.400Z,87.60
2018-04-15T19:04:59.800Z,88.00
2018-04-15T19:07:26.345Z,88.00
2018-04-15T19:09:54.909Z,88.50
2018-04-15T19:12:21.465Z,88.40
2018-04-15T19:14:48.096Z,88.70
2018-04-15T19:17:14.613Z,89.00
2018-04-15T19:19:42.146Z,88.30
2018-04-15T19:22:09.463Z,88.60
2018-04-15T19:24:36.064Z,88.50
2018-04-15T19:27:02.629Z,89.30
2018-04-15T19:29:29.160Z,89.40
2018-04-15T19:31:55.768Z,90.20
2018-04-15T19:34:22.382Z,90.10
2018-04-15T19:36:50.627Z,89.30
2018-04-15T19:39:17.203Z,89.30
2018-04-15T19:41:43.743Z,89.50
2018-04-15T19:44:11.029Z,90.10
2018-04-15T19:46:37.564Z,90.00
2018-04-15T19:49:04.220Z,90.30
2018-04-15T19:51:30.959Z,90.40
2018-04-15T19:54:00.436Z,90.40
2018-04-15T19:56:28.597Z,90.40
2018-04-15T19:58:55.143Z,90.40
2018-04-15T20:01:21.736Z,90.70
2018-04-15T20:03:48.267Z,91.10
2018-04-15T20:06:14.795Z,91.90
2018-04-15T20:08:41.405Z,92.10
2018-04-15T20:11:08.030Z,91.70
2018-04-15T20:13:34.611Z,92.80
2018-04-15T20:16:01.188Z,93.00
2018-04-15T20:18:28.437Z,93.00
2018-04-15T20:20:55.037Z,93.00
2018-04-15T20:23:21.676Z,93.30
2018-04-15T20:25:48.253Z,93.10
2018-04-15T20:28:14.831Z,93.20
2018-04-15T20:30:41.375Z,93.90
2018-04-15T20:33:07.956Z,94.40
2018-04-15T20:35:34.545Z,95.20
2018-04-15T20:38:01.109Z,95.70
2018-04-15T20:40:27.791Z,96.00
2018-04-15T20:42:54.337Z,96.10
2018-04-15T20:45:20.972Z,96.20
2018-04-15T20:47:47.591Z,96.30
2018-04-15T20:50:14.149Z,96.60
2018-04-15T20:52:40.688Z,96.80
2018-04-15T20:55:07.306Z,97.10
2018-04-15T20:57:33.900Z,97.50
2018-04-15T21:00:00.421Z,97.40
2018-04-15T21:02:27.769Z,97.70
2018-04-15T21:04:54.401Z,97.70
2018-04-15T21:07:20.946Z,97.80
2018-04-15T21:09:47.567Z,98.00
2018-04-15T21:12:14.134Z,98.30
2018-04-15T21:14:40.656Z,98.00
2018-04-15T21:17:07.226Z,97.60
2018-04-15T21:19:33.790Z,97.60
2018-04-15T21:22:00.367Z,97.50
2018-04-15T21:24:26.876Z,97.20
2018-04-15T21:26:53.458Z,97.10
2018-04-15T21:29:19.957Z,96.90
2018-04-15T21:31:46.460Z,96.80
2018-04-15T21:34:12.950Z,96.90
2018-04-15T21:36:39.916Z,96.70
2018-04-15T21:39:06.521Z,96.60
2018-04-15T21:41:33.113Z,96.80
2018-04-15T21:44:00.478Z,96.90
2018-04-15T21:46:27.010Z,96.90
2018-04-15T21:48:53.633Z,96.90
2018-04-15T21:51:20.946Z,96.90
2018-04-15T21:53:47.640Z,96.90
2018-04-15T21:56:14.269Z,96.90
2018-04-15T21:58:40.869Z,96.90
2018-04-15T22:01:07.455Z,96.90
2018-04-15T22:03:34.055Z,97.10
2018-04-15T22:06:00.612Z,97.20
2018-04-15T22:08:27.119Z,97.20
2018-04-15T22:10:54.382Z,97.40
2018-04-15T22:13:21.672Z,97.40
2018-04-15T22:15:48.231Z,97.40
2018-04-15T22:18:14.767Z,97.50
2018-04-15T22:20:41.272Z,97.60
2018-04-15T22:23:07.910Z,97.70
2018-04-15T22:25:34.463Z,98.00
2018-04-15T22:28:01.014Z,98.00
2018-04-15T22:30:27.624Z,98.20
2018-04-15T22:32:54.206Z,98.30
2018-04-15T22:35:20.748Z,98.30
2018-04-15T22:37:47.276Z,98.40
2018-04-15T22:40:13.815Z,98.50
2018-04-15T22:42:40.443Z,98.50
2018-04-15T22:45:06.980Z,98.60
2018-04-15T22:47:33.593Z,98.70
2018-04-15T22:50:06.010Z,98.50
2018-04-15T22:52:32.568Z,98.90
2018-04-15T22:54:59.975Z,99.10
2018-04-15T22:57:26.922Z,99.10
2018-04-15T22:59:53.474Z,99.20
2018-04-15T23:02:20.000Z,99.20
2018-04-15T23:04:46.537Z,99.10
2018-04-15T23:07:13.075Z,99.10
2018-04-15T23:09:40.412Z,98.90
2018-04-15T23:12:07.028Z,98.90
2018-04-15T23:14:33.562Z,98.80
2018-04-15T23:17:00.043Z,98.70
2018-04-15T23:19:26.595Z,98.30
2018-04-15T23:21:53.101Z,97.90
2018-04-15T23:24:19.621Z,98.70
2018-04-15T23:26:46.208Z,98.90
2018-04-15T23:29:12.733Z,98.90
2018-04-15T23:31:39.257Z,98.70
2018-04-15T23:34:05.778Z,98.60
2018-04-15T23:36:32.284Z,97.90
2018-04-15T23:38:59.332Z,98.60
2018-04-15T23:41:25.871Z,98.90
2018-04-15T23:43:52.467Z,99.00
2018-04-15T23:46:18.984Z,99.10
2018-04-15T23:48:45.504Z,99.30
2018-04-15T23:51:12.046Z,99.10
2018-04-15T23:53:38.570Z,99.00
2018-04-15T23:56:05.100Z,99.30
2018-04-15T23:58:31.660Z,99.40
